sensor_id;sensor_type;location;lat;lon;timestamp;P1;durP1;ratioP1;P2;durP2;ratioP2
28353;SDS011;15603;50.878;8.036;2024-02-14T00:01:13;5.38;;;1.02;;
28353;SDS011;15603;50.878;8.036;2024-02-14T00:03:40;8.43;;;1.10;;
28353;SDS011;15603;50.878;8.036;2024-02-14T00:06:07;7.18;;;1.77;;
28353;SDS011;15603;50.878;8.036;2024-02-14T00:08:35;4.40;;;1.48;;
28353;SDS011;15603;50.878;8.036;2024-02-14T00:11:02;2.50;;;1.30;;
28353;SDS011;15603;50.878;8.036;2024-02-14T00:13:30;6.60;;;1.20;;
28353;SDS011;15603;50.878;8.036;2024-02-14T00:15:59;5.85;;;1.50;;
28353;SDS011;15603;50.878;8.036;2024-02-14T00:18:27;4.60;;;1.42;;
28353;SDS011;15603;50.878;8.036;2024-02-14T00:20:55;6.28;;;1.15;;
28353;SDS011;15603;50.878;8.036;2024-02-14T00:23:22;6.30;;;1.55;;
28353;SDS011;15603;50.878;8.036;2024-02-14T00:25:49;8.38;;;1.15;;
28353;SDS011;15603;50.878;8.036;2024-02-14T00:28:16;4.55;;;0.90;;
28353;SDS011;15603;50.878;8.036;2024-02-14T00:30:44;6.13;;;1.10;;
28353;SDS011;15603;50.878;8.036;2024-02-14T00:33:12;4.47;;;1.60;;
28353;SDS011;15603;50.878;8.036;2024-02-14T00:35:40;3.83;;;1.05;;
28353;SDS011;15603;50.878;8.036;2024-02-14T00:38:07;10.40;;;1.17;;
28353;SDS011;15603;50.878;8.036;2024-02-14T00:40:34;1.67;;;0.70;;
28353;SDS011;15603;50.878;8.036;2024-02-14T00:43:01;3.38;;;1.10;;
28353;SDS011;15603;50.878;8.036;2024-02-14T00:45:29;2.00;;;0.80;;
28353;SDS011;15603;50.878;8.036;2024-02-14T00:47:56;1.88;;;0.77;;
28353;SDS011;15603;50.878;8.036;2024-02-14T00:50:23;2.00;;;0.70;;
28353;SDS011;15603;50.878;8.036;2024-02-14T00:52:50;10.18;;;1.08;;
28353;SDS011;15603;50.878;8.036;2024-02-14T00:55:17;6.55;;;1.25;;
28353;SDS011;15603;50.878;8.036;2024-02-14T00:57:44;2.05;;;1.13;;
28353;SDS011;15603;50.878;8.036;2024-02-14T01:00:11;3.08;;;1.13;;
28353;SDS011;15603;50.878;8.036;2024-02-14T01:02:39;2.15;;;0.90;;
28353;SDS011;15603;50.878;8.036;2024-02-14T01:05:06;2.35;;;0.93;;
28353;SDS011;15603;50.878;8.036;2024-02-14T01:07:33;1.95;;;0.70;;
28353;SDS011;15603;50.878;8.036;2024-02-14T01:10:01;3.78;;;1.17;;
28353;SDS011;15603;50.878;8.036;2024-02-14T01:12:29;2.95;;;1.02;;
28353;SDS011;15603;50.878;8.036;2024-02-14T01:14:59;2.45;;;0.95;;
28353;SDS011;15603;50.878;8.036;2024-02-14T01:17:26;2.78;;;1.00;;
28353;SDS011;15603;50.878;8.036;2024-02-14T01:19:53;4.13;;;1.00;;
28353;SDS011;15603;50.878;8.036;2024-02-14T01:22:20;8.32;;;1.13;;
28353;SDS011;15603;50.878;8.036;2024-02-14T01:24:48;5.97;;;0.95;;
28353;SDS011;15603;50.878;8.036;2024-02-14T01:27:15;7.18;;;1.02;;
28353;SDS011;15603;50.878;8.036;2024-02-14T01:29:43;2.22;;;0.82;;
28353;SDS011;15603;50.878;8.036;2024-02-14T01:32:10;2.47;;;0.75;;
28353;SDS011;15603;50.878;8.036;2024-02-14T01:34:38;5.93;;;0.60;;
28353;SDS011;15603;50.878;8.036;2024-02-14T01:37:05;6.15;;;1.23;;
28353;SDS011;15603;50.878;8.036;2024-02-14T01:39:33;1.75;;;0.60;;
28353;SDS011;15603;50.878;8.036;2024-02-14T01:42:00;3.72;;;1.48;;
28353;SDS011;15603;50.878;8.036;2024-02-14T01:44:27;7.57;;;1.15;;
28353;SDS011;15603;50.878;8.036;2024-02-14T01:46:54;7.10;;;1.10;;
28353;SDS011;15603;50.878;8.036;2024-02-14T01:49:22;4.63;;;0.90;;
28353;SDS011;15603;50.878;8.036;2024-02-14T01:51:49;1.70;;;0.85;;
28353;SDS011;15603;50.878;8.036;2024-02-14T01:54:16;5.15;;;0.93;;
28353;SDS011;15603;50.878;8.036;2024-02-14T01:56:44;1.60;;;0.77;;
28353;SDS011;15603;50.878;8.036;2024-02-14T01:59:13;1.05;;;0.43;;
28353;SDS011;15603;50.878;8.036;2024-02-14T02:01:42;3.63;;;1.27;;
28353;SDS011;15603;50.878;8.036;2024-02-14T02:04:09;4.38;;;0.70;;
28353;SDS011;15603;50.878;8.036;2024-02-14T02:06:37;2.83;;;0.60;;
28353;SDS011;15603;50.878;8.036;2024-02-14T02:09:07;5.25;;;0.95;;
28353;SDS011;15603;50.878;8.036;2024-02-14T02:11:42;3.60;;;0.63;;
28353;SDS011;15603;50.878;8.036;2024-02-14T02:14:15;3.28;;;1.00;;
28353;SDS011;15603;50.878;8.036;2024-02-14T02:16:46;2.13;;;0.75;;
28353;SDS011;15603;50.878;8.036;2024-02-14T02:19:13;5.85;;;0.60;;
28353;SDS011;15603;50.878;8.036;2024-02-14T02:21:42;1.40;;;0.65;;
28353;SDS011;15603;50.878;8.036;2024-02-14T02:24:13;4.82;;;0.93;;
28353;SDS011;15603;50.878;8.036;2024-02-14T02:26:40;4.43;;;0.98;;
28353;SDS011;15603;50.878;8.036;2024-02-14T02:29:07;1.67;;;0.80;;
28353;SDS011;15603;50.878;8.036;2024-02-14T02:31:36;3.13;;;0.80;;
28353;SDS011;15603;50.878;8.036;2024-02-14T02:34:04;3.08;;;0.80;;
28353;SDS011;15603;50.878;8.036;2024-02-14T02:36:32;3.00;;;0.93;;
28353;SDS011;15603;50.878;8.036;2024-02-14T02:39:00;2.22;;;0.80;;
28353;SDS011;15603;50.878;8.036;2024-02-14T02:41:27;3.33;;;0.65;;
28353;SDS011;15603;50.878;8.036;2024-02-14T02:43:55;2.70;;;0.75;;
28353;SDS011;15603;50.878;8.036;2024-02-14T02:46:22;4.75;;;0.68;;
28353;SDS011;15603;50.878;8.036;2024-02-14T02:48:50;6.28;;;0.70;;
28353;SDS011;15603;50.878;8.036;2024-02-14T02:51:18;2.45;;;1.00;;
28353;SDS011;15603;50.878;8.036;2024-02-14T02:53:46;5.30;;;0.80;;
28353;SDS011;15603;50.878;8.036;2024-02-14T02:56:14;0.88;;;0.40;;
28353;SDS011;15603;50.878;8.036;2024-02-14T02:58:41;2.97;;;0.68;;
28353;SDS011;15603;50.878;8.036;2024-02-14T03:01:10;1.98;;;0.68;;
28353;SDS011;15603;50.878;8.036;2024-02-14T03:03:38;1.90;;;0.57;;
28353;SDS011;15603;50.878;8.036;2024-02-14T03:06:06;2.58;;;0.50;;
28353;SDS011;15603;50.878;8.036;2024-02-14T03:08:33;3.03;;;0.70;;
28353;SDS011;15603;50.878;8.036;2024-02-14T03:11:03;1.45;;;0.60;;
28353;SDS011;15603;50.878;8.036;2024-02-14T03:13:34;2.13;;;0.63;;
28353;SDS011;15603;50.878;8.036;2024-02-14T03:16:02;3.00;;;0.55;;
28353;SDS011;15603;50.878;8.036;2024-02-14T03:18:31;2.10;;;0.43;;
28353;SDS011;15603;50.878;8.036;2024-02-14T03:20:59;4.18;;;0.52;;
28353;SDS011;15603;50.878;8.036;2024-02-14T03:23:26;2.67;;;0.65;;
28353;SDS011;15603;50.878;8.036;2024-02-14T03:25:54;3.80;;;0.73;;
28353;SDS011;15603;50.878;8.036;2024-02-14T03:28:21;1.77;;;0.60;;
28353;SDS011;15603;50.878;8.036;2024-02-14T03:30:49;6.78;;;0.70;;
28353;SDS011;15603;50.878;8.036;2024-02-14T03:33:16;2.50;;;0.90;;
28353;SDS011;15603;50.878;8.036;2024-02-14T03:35:43;2.97;;;0.65;;
28353;SDS011;15603;50.878;8.036;2024-02-14T03:38:10;5.85;;;0.68;;
28353;SDS011;15603;50.878;8.036;2024-02-14T03:40:37;6.70;;;0.90;;
28353;SDS011;15603;50.878;8.036;2024-02-14T03:43:05;4.60;;;0.80;;
28353;SDS011;15603;50.878;8.036;2024-02-14T03:45:32;3.40;;;0.60;;
28353;SDS011;15603;50.878;8.036;2024-02-14T03:47:59;6.57;;;0.68;;
28353;SDS011;15603;50.878;8.036;2024-02-14T03:50:26;1.02;;;0.40;;
28353;SDS011;15603;50.878;8.036;2024-02-14T03:52:55;3.10;;;0.65;;
28353;SDS011;15603;50.878;8.036;2024-02-14T03:55:22;1.27;;;0.60;;
28353;SDS011;15603;50.878;8.036;2024-02-14T03:57:50;2.00;;;0.40;;
28353;SDS011;15603;50.878;8.036;2024-02-14T04:00:17;2.10;;;0.63;;
28353;SDS011;15603;50.878;8.036;2024-02-14T04:02:45;1.38;;;0.80;;
28353;SDS011;15603;50.878;8.036;2024-02-14T04:05:12;1.65;;;0.60;;
28353;SDS011;15603;50.878;8.036;2024-02-14T04:07:39;2.25;;;0.68;;
28353;SDS011;15603;50.878;8.036;2024-02-14T04:10:06;3.08;;;1.05;;
28353;SDS011;15603;50.878;8.036;2024-02-14T04:12:34;3.53;;;0.70;;
28353;SDS011;15603;50.878;8.036;2024-02-14T04:15:01;1.98;;;0.68;;
28353;SDS011;15603;50.878;8.036;2024-02-14T04:17:28;2.50;;;0.80;;
28353;SDS011;15603;50.878;8.036;2024-02-14T04:19:55;2.20;;;0.80;;
28353;SDS011;15603;50.878;8.036;2024-02-14T04:22:23;5.13;;;0.95;;
28353;SDS011;15603;50.878;8.036;2024-02-14T04:24:50;4.80;;;0.77;;
28353;SDS011;15603;50.878;8.036;2024-02-14T04:27:17;1.25;;;0.77;;
28353;SDS011;15603;50.878;8.036;2024-02-14T04:29:47;8.88;;;1.10;;
28353;SDS011;15603;50.878;8.036;2024-02-14T04:32:15;0.88;;;0.50;;
28353;SDS011;15603;50.878;8.036;2024-02-14T04:34:42;2.45;;;0.75;;
28353;SDS011;15603;50.878;8.036;2024-02-14T04:37:11;7.35;;;0.90;;
28353;SDS011;15603;50.878;8.036;2024-02-14T04:39:40;2.92;;;0.95;;
28353;SDS011;15603;50.878;8.036;2024-02-14T04:42:09;6.55;;;0.77;;
28353;SDS011;15603;50.878;8.036;2024-02-14T04:44:36;5.68;;;0.90;;
28353;SDS011;15603;50.878;8.036;2024-02-14T04:47:03;5.70;;;0.95;;
28353;SDS011;15603;50.878;8.036;2024-02-14T04:49:30;9.80;;;1.00;;
28353;SDS011;15603;50.878;8.036;2024-02-14T04:51:58;3.80;;;1.00;;
28353;SDS011;15603;50.878;8.036;2024-02-14T04:54:25;4.97;;;0.90;;
28353;SDS011;15603;50.878;8.036;2024-02-14T04:56:54;4.57;;;0.70;;
28353;SDS011;15603;50.878;8.036;2024-02-14T04:59:27;6.88;;;0.93;;
28353;SDS011;15603;50.878;8.036;2024-02-14T05:01:55;2.58;;;0.73;;
28353;SDS011;15603;50.878;8.036;2024-02-14T05:04:23;2.47;;;0.77;;
28353;SDS011;15603;50.878;8.036;2024-02-14T05:06:51;3.03;;;1.08;;
28353;SDS011;15603;50.878;8.036;2024-02-14T05:09:24;2.50;;;0.70;;
28353;SDS011;15603;50.878;8.036;2024-02-14T05:11:52;3.38;;;0.80;;
28353;SDS011;15603;50.878;8.036;2024-02-14T05:14:19;2.85;;;0.65;;
28353;SDS011;15603;50.878;8.036;2024-02-14T05:16:46;1.52;;;0.77;;
28353;SDS011;15603;50.878;8.036;2024-02-14T05:19:14;3.78;;;0.73;;
28353;SDS011;15603;50.878;8.036;2024-02-14T05:21:42;5.00;;;1.60;;
28353;SDS011;15603;50.878;8.036;2024-02-14T05:24:09;4.05;;;1.17;;
28353;SDS011;15603;50.878;8.036;2024-02-14T05:26:36;4.85;;;0.88;;
28353;SDS011;15603;50.878;8.036;2024-02-14T05:29:04;6.20;;;0.88;;
28353;SDS011;15603;50.878;8.036;2024-02-14T05:31:45;3.47;;;0.93;;
28353;SDS011;15603;50.878;8.036;2024-02-14T05:36:43;3.17;;;0.70;;
28353;SDS011;15603;50.878;8.036;2024-02-14T05:39:13;2.55;;;1.10;;
28353;SDS011;15603;50.878;8.036;2024-02-14T05:41:41;7.07;;;1.10;;
28353;SDS011;15603;50.878;8.036;2024-02-14T05:44:09;4.43;;;1.00;;
28353;SDS011;15603;50.878;8.036;2024-02-14T05:46:36;8.20;;;0.95;;
28353;SDS011;15603;50.878;8.036;2024-02-14T05:49:04;3.10;;;0.85;;
28353;SDS011;15603;50.878;8.036;2024-02-14T05:51:33;2.15;;;0.68;;
28353;SDS011;15603;50.878;8.036;2024-02-14T05:54:00;3.25;;;1.40;;
28353;SDS011;15603;50.878;8.036;2024-02-14T05:56:28;4.07;;;1.08;;
28353;SDS011;15603;50.878;8.036;2024-02-14T05:58:55;6.32;;;1.13;;
28353;SDS011;15603;50.878;8.036;2024-02-14T06:01:23;3.08;;;0.95;;
28353;SDS011;15603;50.878;8.036;2024-02-14T06:03:50;5.05;;;0.95;;
28353;SDS011;15603;50.878;8.036;2024-02-14T06:06:17;3.60;;;1.20;;
28353;SDS011;15603;50.878;8.036;2024-02-14T06:08:44;3.58;;;0.80;;
28353;SDS011;15603;50.878;8.036;2024-02-14T06:11:12;4.68;;;0.88;;
28353;SDS011;15603;50.878;8.036;2024-02-14T06:13:41;5.45;;;0.95;;
28353;SDS011;15603;50.878;8.036;2024-02-14T06:16:11;9.13;;;1.67;;
28353;SDS011;15603;50.878;8.036;2024-02-14T06:18:38;8.52;;;1.20;;
28353;SDS011;15603;50.878;8.036;2024-02-14T06:21:07;5.88;;;1.45;;
28353;SDS011;15603;50.878;8.036;2024-02-14T06:23:34;1.05;;;0.73;;
28353;SDS011;15603;50.878;8.036;2024-02-14T06:26:01;3.88;;;0.90;;
28353;SDS011;15603;50.878;8.036;2024-02-14T06:28:28;3.67;;;1.55;;
28353;SDS011;15603;50.878;8.036;2024-02-14T06:30:56;3.15;;;1.67;;
28353;SDS011;15603;50.878;8.036;2024-02-14T06:33:23;5.72;;;1.40;;
28353;SDS011;15603;50.878;8.036;2024-02-14T06:35:53;2.72;;;1.15;;
28353;SDS011;15603;50.878;8.036;2024-02-14T06:38:21;3.55;;;0.80;;
28353;SDS011;15603;50.878;8.036;2024-02-14T06:40:49;5.43;;;1.38;;
28353;SDS011;15603;50.878;8.036;2024-02-14T06:43:16;4.03;;;1.10;;
28353;SDS011;15603;50.878;8.036;2024-02-14T06:45:43;4.38;;;1.35;;
28353;SDS011;15603;50.878;8.036;2024-02-14T06:48:10;4.78;;;0.80;;
28353;SDS011;15603;50.878;8.036;2024-02-14T06:50:37;5.57;;;1.15;;
28353;SDS011;15603;50.878;8.036;2024-02-14T06:53:06;3.90;;;1.33;;
28353;SDS011;15603;50.878;8.036;2024-02-14T06:55:33;4.30;;;1.13;;
28353;SDS011;15603;50.878;8.036;2024-02-14T06:58:00;5.65;;;1.10;;
28353;SDS011;15603;50.878;8.036;2024-02-14T07:00:28;4.40;;;1.00;;
28353;SDS011;15603;50.878;8.036;2024-02-14T07:02:55;3.30;;;1.05;;
28353;SDS011;15603;50.878;8.036;2024-02-14T07:05:23;6.20;;;1.33;;
28353;SDS011;15603;50.878;8.036;2024-02-14T07:07:50;1.85;;;1.02;;
28353;SDS011;15603;50.878;8.036;2024-02-14T07:10:17;6.90;;;1.50;;
28353;SDS011;15603;50.878;8.036;2024-02-14T07:12:44;3.72;;;1.20;;
28353;SDS011;15603;50.878;8.036;2024-02-14T07:15:11;3.00;;;1.50;;
28353;SDS011;15603;50.878;8.036;2024-02-14T07:17:38;5.10;;;2.25;;
28353;SDS011;15603;50.878;8.036;2024-02-14T07:20:06;8.23;;;1.40;;
28353;SDS011;15603;50.878;8.036;2024-02-14T07:22:37;8.68;;;1.50;;
28353;SDS011;15603;50.878;8.036;2024-02-14T07:25:05;4.10;;;1.27;;
28353;SDS011;15603;50.878;8.036;2024-02-14T07:27:34;4.80;;;1.52;;
28353;SDS011;15603;50.878;8.036;2024-02-14T07:30:01;3.38;;;1.58;;
28353;SDS011;15603;50.878;8.036;2024-02-14T07:32:29;5.55;;;1.52;;
28353;SDS011;15603;50.878;8.036;2024-02-14T07:34:56;1.70;;;1.13;;
28353;SDS011;15603;50.878;8.036;2024-02-14T07:37:23;12.32;;;1.70;;
28353;SDS011;15603;50.878;8.036;2024-02-14T07:39:51;4.93;;;1.73;;
28353;SDS011;15603;50.878;8.036;2024-02-14T07:42:18;10.35;;;1.50;;
28353;SDS011;15603;50.878;8.036;2024-02-14T07:44:45;6.05;;;1.75;;
28353;SDS011;15603;50.878;8.036;2024-02-14T07:47:12;2.35;;;1.30;;
28353;SDS011;15603;50.878;8.036;2024-02-14T07:49:39;3.78;;;1.55;;
28353;SDS011;15603;50.878;8.036;2024-02-14T07:52:07;3.63;;;1.33;;
28353;SDS011;15603;50.878;8.036;2024-02-14T07:54:34;3.88;;;1.73;;
28353;SDS011;15603;50.878;8.036;2024-02-14T07:57:02;2.97;;;1.52;;
28353;SDS011;15603;50.878;8.036;2024-02-14T07:59:31;6.90;;;1.30;;
28353;SDS011;15603;50.878;8.036;2024-02-14T08:01:58;3.28;;;1.27;;
28353;SDS011;15603;50.878;8.036;2024-02-14T08:04:25;4.95;;;1.63;;
28353;SDS011;15603;50.878;8.036;2024-02-14T08:06:53;6.07;;;1.60;;
28353;SDS011;15603;50.878;8.036;2024-02-14T08:09:20;3.35;;;1.20;;
28353;SDS011;15603;50.878;8.036;2024-02-14T08:11:47;4.15;;;1.35;;
28353;SDS011;15603;50.878;8.036;2024-02-14T08:14:14;3.47;;;1.23;;
28353;SDS011;15603;50.878;8.036;2024-02-14T08:16:42;3.40;;;1.33;;
28353;SDS011;15603;50.878;8.036;2024-02-14T08:19:09;4.72;;;1.55;;
28353;SDS011;15603;50.878;8.036;2024-02-14T08:21:37;4.90;;;1.38;;
28353;SDS011;15603;50.878;8.036;2024-02-14T08:24:04;4.32;;;1.25;;
28353;SDS011;15603;50.878;8.036;2024-02-14T08:26:32;3.05;;;1.27;;
28353;SDS011;15603;50.878;8.036;2024-02-14T08:28:59;6.88;;;2.08;;
28353;SDS011;15603;50.878;8.036;2024-02-14T08:31:27;2.85;;;0.73;;
28353;SDS011;15603;50.878;8.036;2024-02-14T08:33:55;4.10;;;1.00;;
28353;SDS011;15603;50.878;8.036;2024-02-14T08:36:22;4.05;;;0.90;;
28353;SDS011;15603;50.878;8.036;2024-02-14T08:38:50;2.78;;;0.95;;
28353;SDS011;15603;50.878;8.036;2024-02-14T08:41:17;1.85;;;1.02;;
28353;SDS011;15603;50.878;8.036;2024-02-14T08:43:45;1.30;;;0.68;;
28353;SDS011;15603;50.878;8.036;2024-02-14T08:46:14;4.82;;;1.25;;
28353;SDS011;15603;50.878;8.036;2024-02-14T08:48:43;1.67;;;0.80;;
28353;SDS011;15603;50.878;8.036;2024-02-14T08:51:16;2.90;;;1.10;;
28353;SDS011;15603;50.878;8.036;2024-02-14T08:53:44;2.13;;;0.65;;
28353;SDS011;15603;50.878;8.036;2024-02-14T08:56:12;3.75;;;0.60;;
28353;SDS011;15603;50.878;8.036;2024-02-14T08:58:41;1.05;;;0.50;;
28353;SDS011;15603;50.878;8.036;2024-02-14T09:01:08;1.83;;;0.68;;
28353;SDS011;15603;50.878;8.036;2024-02-14T09:03:42;1.98;;;0.63;;
28353;SDS011;15603;50.878;8.036;2024-02-14T09:08:43;1.65;;;0.50;;
28353;SDS011;15603;50.878;8.036;2024-02-14T09:11:11;5.25;;;0.47;;
28353;SDS011;15603;50.878;8.036;2024-02-14T09:13:39;2.33;;;0.70;;
28353;SDS011;15603;50.878;8.036;2024-02-14T09:16:09;3.25;;;0.60;;
28353;SDS011;15603;50.878;8.036;2024-02-14T09:18:38;1.77;;;0.68;;
28353;SDS011;15603;50.878;8.036;2024-02-14T09:21:06;1.27;;;0.73;;
28353;SDS011;15603;50.878;8.036;2024-02-14T09:23:34;0.73;;;0.70;;
28353;SDS011;15603;50.878;8.036;2024-02-14T09:26:01;1.25;;;0.57;;
28353;SDS011;15603;50.878;8.036;2024-02-14T09:28:29;1.33;;;0.50;;
28353;SDS011;15603;50.878;8.036;2024-02-14T09:30:57;1.35;;;0.68;;
28353;SDS011;15603;50.878;8.036;2024-02-14T09:33:24;4.10;;;0.60;;
28353;SDS011;15603;50.878;8.036;2024-02-14T09:35:52;2.00;;;0.55;;
28353;SDS011;15603;50.878;8.036;2024-02-14T09:38:20;1.48;;;0.45;;
28353;SDS011;15603;50.878;8.036;2024-02-14T09:40:48;2.50;;;0.60;;
28353;SDS011;15603;50.878;8.036;2024-02-14T09:43:28;2.10;;;0.50;;
28353;SDS011;15603;50.878;8.036;2024-02-14T09:46:01;1.67;;;0.50;;
28353;SDS011;15603;50.878;8.036;2024-02-14T09:48:30;1.55;;;0.57;;
28353;SDS011;15603;50.878;8.036;2024-02-14T09:50:57;5.60;;;0.60;;
28353;SDS011;15603;50.878;8.036;2024-02-14T09:53:26;4.53;;;0.75;;
28353;SDS011;15603;50.878;8.036;2024-02-14T09:55:56;1.10;;;0.60;;
28353;SDS011;15603;50.878;8.036;2024-02-14T09:58:25;1.33;;;0.63;;
28353;SDS011;15603;50.878;8.036;2024-02-14T10:00:54;2.15;;;0.60;;
28353;SDS011;15603;50.878;8.036;2024-02-14T10:03:21;1.85;;;0.50;;
28353;SDS011;15603;50.878;8.036;2024-02-14T10:05:49;0.75;;;0.50;;
28353;SDS011;15603;50.878;8.036;2024-02-14T10:08:16;1.02;;;0.40;;
28353;SDS011;15603;50.878;8.036;2024-02-14T10:10:44;2.60;;;0.95;;
28353;SDS011;15603;50.878;8.036;2024-02-14T10:13:17;2.35;;;0.68;;
28353;SDS011;15603;50.878;8.036;2024-02-14T10:15:45;1.38;;;0.60;;
28353;SDS011;15603;50.878;8.036;2024-02-14T10:18:12;0.82;;;0.50;;
28353;SDS011;15603;50.878;8.036;2024-02-14T10:20:51;0.82;;;0.40;;
28353;SDS011;15603;50.878;8.036;2024-02-14T10:23:22;1.58;;;0.40;;
28353;SDS011;15603;50.878;8.036;2024-02-14T10:25:50;2.28;;;0.60;;
28353;SDS011;15603;50.878;8.036;2024-02-14T10:28:20;4.70;;;0.60;;
28353;SDS011;15603;50.878;8.036;2024-02-14T10:30:58;1.50;;;0.30;;
28353;SDS011;15603;50.878;8.036;2024-02-14T10:33:29;1.23;;;0.43;;
28353;SDS011;15603;50.878;8.036;2024-02-14T10:35:57;4.93;;;0.32;;
28353;SDS011;15603;50.878;8.036;2024-02-14T10:38:30;1.58;;;0.60;;
28353;SDS011;15603;50.878;8.036;2024-02-14T10:41:00;2.85;;;0.52;;
28353;SDS011;15603;50.878;8.036;2024-02-14T10:43:28;0.32;;;0.32;;
28353;SDS011;15603;50.878;8.036;2024-02-14T10:45:56;1.35;;;0.45;;
28353;SDS011;15603;50.878;8.036;2024-02-14T10:48:27;1.45;;;0.47;;
28353;SDS011;15603;50.878;8.036;2024-02-14T10:50:58;1.13;;;0.63;;
28353;SDS011;15603;50.878;8.036;2024-02-14T10:53:29;1.60;;;0.47;;
28353;SDS011;15603;50.878;8.036;2024-02-14T10:56:01;2.05;;;0.63;;
28353;SDS011;15603;50.878;8.036;2024-02-14T10:58:29;1.45;;;0.40;;
28353;SDS011;15603;50.878;8.036;2024-02-14T11:00:57;1.63;;;0.40;;
28353;SDS011;15603;50.878;8.036;2024-02-14T11:03:25;4.40;;;0.40;;
28353;SDS011;15603;50.878;8.036;2024-02-14T11:05:56;4.75;;;0.32;;
28353;SDS011;15603;50.878;8.036;2024-02-14T11:08:31;4.05;;;0.52;;
28353;SDS011;15603;50.878;8.036;2024-02-14T11:10:59;4.45;;;0.60;;
28353;SDS011;15603;50.878;8.036;2024-02-14T11:13:30;1.80;;;0.60;;
28353;SDS011;15603;50.878;8.036;2024-02-14T11:16:01;5.38;;;0.35;;
28353;SDS011;15603;50.878;8.036;2024-02-14T11:18:31;1.50;;;0.57;;
28353;SDS011;15603;50.878;8.036;2024-02-14T11:21:15;0.38;;;0.30;;
28353;SDS011;15603;50.878;8.036;2024-02-14T11:23:54;1.35;;;0.30;;
28353;SDS011;15603;50.878;8.036;2024-02-14T11:26:22;0.98;;;0.40;;
28353;SDS011;15603;50.878;8.036;2024-02-14T11:28:59;2.13;;;1.77;;
28353;SDS011;15603;50.878;8.036;2024-02-14T11:31:32;0.90;;;0.40;;
28353;SDS011;15603;50.878;8.036;2024-02-14T11:34:02;3.55;;;0.43;;
28353;SDS011;15603;50.878;8.036;2024-02-14T11:36:31;2.95;;;0.57;;
28353;SDS011;15603;50.878;8.036;2024-02-14T11:39:02;0.30;;;0.30;;
28353;SDS011;15603;50.878;8.036;2024-02-14T11:41:32;0.57;;;0.32;;
28353;SDS011;15603;50.878;8.036;2024-02-14T11:44:01;3.22;;;0.40;;
28353;SDS011;15603;50.878;8.036;2024-02-14T11:46:30;4.85;;;0.38;;
28353;SDS011;15603;50.878;8.036;2024-02-14T11:49:00;5.15;;;0.82;;
28353;SDS011;15603;50.878;8.036;2024-02-14T11:51:29;1.13;;;0.50;;
28353;SDS011;15603;50.878;8.036;2024-02-14T11:53:57;2.85;;;0.40;;
28353;SDS011;15603;50.878;8.036;2024-02-14T11:56:31;1.85;;;0.47;;
28353;SDS011;15603;50.878;8.036;2024-02-14T11:59:05;0.32;;;0.30;;
28353;SDS011;15603;50.878;8.036;2024-02-14T12:01:35;2.92;;;0.35;;
28353;SDS011;15603;50.878;8.036;2024-02-14T12:04:07;1.42;;;0.30;;
28353;SDS011;15603;50.878;8.036;2024-02-14T12:06:38;5.13;;;0.40;;
28353;SDS011;15603;50.878;8.036;2024-02-14T12:09:08;2.37;;;0.57;;
28353;SDS011;15603;50.878;8.036;2024-02-14T12:11:37;1.13;;;0.50;;
28353;SDS011;15603;50.878;8.036;2024-02-14T12:14:08;0.80;;;0.40;;
28353;SDS011;15603;50.878;8.036;2024-02-14T12:16:36;1.27;;;0.57;;
28353;SDS011;15603;50.878;8.036;2024-02-14T12:21:40;1.90;;;0.60;;
28353;SDS011;15603;50.878;8.036;2024-02-14T12:24:09;2.13;;;0.40;;
28353;SDS011;15603;50.878;8.036;2024-02-14T12:26:37;3.65;;;0.40;;
28353;SDS011;15603;50.878;8.036;2024-02-14T12:29:05;2.40;;;0.40;;
28353;SDS011;15603;50.878;8.036;2024-02-14T12:31:37;4.47;;;0.60;;
28353;SDS011;15603;50.878;8.036;2024-02-14T12:34:05;1.63;;;0.45;;
28353;SDS011;15603;50.878;8.036;2024-02-14T12:36:33;1.83;;;0.50;;
28353;SDS011;15603;50.878;8.036;2024-02-14T12:39:00;1.02;;;0.45;;
28353;SDS011;15603;50.878;8.036;2024-02-14T12:41:29;3.20;;;1.00;;
28353;SDS011;15603;50.878;8.036;2024-02-14T12:43:58;5.80;;;0.60;;
28353;SDS011;15603;50.878;8.036;2024-02-14T12:46:25;1.25;;;0.40;;
28353;SDS011;15603;50.878;8.036;2024-02-14T12:48:52;1.88;;;0.77;;
28353;SDS011;15603;50.878;8.036;2024-02-14T12:51:20;2.25;;;1.00;;
28353;SDS011;15603;50.878;8.036;2024-02-14T12:53:48;1.27;;;0.55;;
28353;SDS011;15603;50.878;8.036;2024-02-14T12:56:15;1.95;;;0.30;;
28353;SDS011;15603;50.878;8.036;2024-02-14T12:58:42;0.77;;;0.40;;
28353;SDS011;15603;50.878;8.036;2024-02-14T13:01:11;1.90;;;0.60;;
28353;SDS011;15603;50.878;8.036;2024-02-14T13:03:39;3.60;;;0.43;;
28353;SDS011;15603;50.878;8.036;2024-02-14T13:06:06;1.02;;;0.32;;
28353;SDS011;15603;50.878;8.036;2024-02-14T13:08:34;0.52;;;0.35;;
28353;SDS011;15603;50.878;8.036;2024-02-14T13:11:01;1.98;;;0.55;;
28353;SDS011;15603;50.878;8.036;2024-02-14T13:13:28;2.03;;;0.60;;
28353;SDS011;15603;50.878;8.036;2024-02-14T13:15:56;3.47;;;0.63;;
28353;SDS011;15603;50.878;8.036;2024-02-14T13:18:23;3.17;;;0.60;;
28353;SDS011;15603;50.878;8.036;2024-02-14T13:20:51;3.17;;;0.82;;
28353;SDS011;15603;50.878;8.036;2024-02-14T13:23:26;2.08;;;0.43;;
28353;SDS011;15603;50.878;8.036;2024-02-14T13:25:53;0.93;;;0.43;;
28353;SDS011;15603;50.878;8.036;2024-02-14T13:28:20;0.88;;;0.50;;
28353;SDS011;15603;50.878;8.036;2024-02-14T13:30:48;1.27;;;0.20;;
28353;SDS011;15603;50.878;8.036;2024-02-14T13:33:15;2.47;;;0.40;;
28353;SDS011;15603;50.878;8.036;2024-02-14T13:35:42;4.07;;;0.60;;
28353;SDS011;15603;50.878;8.036;2024-02-14T13:38:10;0.95;;;0.30;;
28353;SDS011;15603;50.878;8.036;2024-02-14T13:40:37;0.98;;;0.45;;
28353;SDS011;15603;50.878;8.036;2024-02-14T13:43:05;0.82;;;0.50;;
28353;SDS011;15603;50.878;8.036;2024-02-14T13:45:40;1.77;;;0.60;;
28353;SDS011;15603;50.878;8.036;2024-02-14T13:48:11;4.07;;;0.68;;
28353;SDS011;15603;50.878;8.036;2024-02-14T13:50:39;0.65;;;0.20;;
28353;SDS011;15603;50.878;8.036;2024-02-14T13:53:08;0.80;;;0.20;;
28353;SDS011;15603;50.878;8.036;2024-02-14T13:55:36;1.25;;;0.70;;
28353;SDS011;15603;50.878;8.036;2024-02-14T13:58:04;1.77;;;0.60;;
28353;SDS011;15603;50.878;8.036;2024-02-14T14:00:31;1.65;;;0.50;;
28353;SDS011;15603;50.878;8.036;2024-02-14T14:03:01;1.00;;;0.30;;
28353;SDS011;15603;50.878;8.036;2024-02-14T14:05:28;1.42;;;0.40;;
28353;SDS011;15603;50.878;8.036;2024-02-14T14:07:56;0.30;;;0.30;;
28353;SDS011;15603;50.878;8.036;2024-02-14T14:10:26;2.92;;;0.73;;
28353;SDS011;15603;50.878;8.036;2024-02-14T14:12:55;9.52;;;0.73;;
28353;SDS011;15603;50.878;8.036;2024-02-14T14:15:22;2.78;;;1.30;;
28353;SDS011;15603;50.878;8.036;2024-02-14T14:17:51;2.92;;;0.90;;
28353;SDS011;15603;50.878;8.036;2024-02-14T14:20:19;1.42;;;0.70;;
28353;SDS011;15603;50.878;8.036;2024-02-14T14:22:47;1.55;;;0.52;;
28353;SDS011;15603;50.878;8.036;2024-02-14T14:25:14;1.10;;;0.40;;
28353;SDS011;15603;50.878;8.036;2024-02-14T14:27:42;0.50;;;0.30;;
28353;SDS011;15603;50.878;8.036;2024-02-14T14:30:10;1.60;;;0.52;;
28353;SDS011;15603;50.878;8.036;2024-02-14T14:32:38;1.42;;;0.57;;
28353;SDS011;15603;50.878;8.036;2024-02-14T14:35:07;0.68;;;0.38;;
28353;SDS011;15603;50.878;8.036;2024-02-14T14:37:36;4.93;;;0.60;;
28353;SDS011;15603;50.878;8.036;2024-02-14T14:40:04;1.55;;;0.60;;
28353;SDS011;15603;50.878;8.036;2024-02-14T14:42:31;1.67;;;0.70;;
28353;SDS011;15603;50.878;8.036;2024-02-14T14:44:59;1.13;;;0.65;;
28353;SDS011;15603;50.878;8.036;2024-02-14T14:47:26;0.70;;;0.47;;
28353;SDS011;15603;50.878;8.036;2024-02-14T14:49:53;1.30;;;0.50;;
28353;SDS011;15603;50.878;8.036;2024-02-14T14:52:21;2.65;;;0.40;;
28353;SDS011;15603;50.878;8.036;2024-02-14T14:54:48;2.25;;;0.95;;
28353;SDS011;15603;50.878;8.036;2024-02-14T14:57:15;0.60;;;0.40;;
28353;SDS011;15603;50.878;8.036;2024-02-14T14:59:43;1.35;;;0.55;;
28353;SDS011;15603;50.878;8.036;2024-02-14T15:02:10;1.75;;;0.60;;